Lester, West Virginia
Current Conditions -  °F | °C
As of 12:51 AM on Saturday 20 Dec 2014 (Local Time) from KBKW Reporting Station
Overcast Overcast  
Wind Chill: 24°   Ceiling: 800
Heat Index: 24°   Visibility: 10mi
Dew Point: 20°   Wind: 3mph
Humidity: 84%   Direction: 110°ESE
Pressure: 30.15"   Gusts: NA
Location:  37.73°N, 81.3°W
Report Text: KBKW 200551Z AUTO 11003KT 10SM OVC008 M04/M07 A3015 RMK AO2 SLP243 T10441067 11033 21044 56010
Loading
Personal Weather Stations






























Interactive Weather Map New forecast layout! Learn more

10-Day Weather Forecast

Advertisements
Track Severe Weather on mobile